createdAt,value
2023-05-05T00:00:15.626Z,3.05
2023-05-05T00:02:42.164Z,2.58
2023-05-05T00:05:08.801Z,2.97
2023-05-05T00:07:35.201Z,2.67
2023-05-05T00:10:01.970Z,3.20
2023-05-05T00:12:28.596Z,2.70
2023-05-05T00:14:55.004Z,2.72
2023-05-05T00:17:21.705Z,2.90
2023-05-05T00:19:48.104Z,2.80
2023-05-05T00:22:15.365Z,2.97
2023-05-05T00:24:41.799Z,2.70
2023-05-05T00:27:08.207Z,3.20
2023-05-05T00:29:34.559Z,2.60
2023-05-05T00:32:01.487Z,2.83
2023-05-05T00:34:27.856Z,2.70
2023-05-05T00:36:54.699Z,2.70
2023-05-05T00:39:21.202Z,2.85
2023-05-05T00:41:47.548Z,2.83
2023-05-05T00:44:14.996Z,2.63
2023-05-05T00:46:42.448Z,3.05
2023-05-05T00:49:09.750Z,3.35
2023-05-05T00:51:36.572Z,2.80
2023-05-05T00:54:02.995Z,2.90
2023-05-05T00:56:29.648Z,2.63
2023-05-05T00:58:56.411Z,2.80
2023-05-05T01:01:23.071Z,3.03
2023-05-05T01:03:49.645Z,2.65
2023-05-05T01:06:39.941Z,2.30
2023-05-05T01:09:36.370Z,2.25
2023-05-05T01:12:14.525Z,2.53
2023-05-05T01:14:55.996Z,2.60
2023-05-05T01:17:29.911Z,2.70
2023-05-05T01:20:12.532Z,2.42
2023-05-05T01:22:47.276Z,2.88
2023-05-05T01:25:30.752Z,3.00
2023-05-05T01:28:28.545Z,2.63
2023-05-05T01:31:03.188Z,2.63
2023-05-05T01:33:36.792Z,2.72
2023-05-05T01:36:12.103Z,2.85
2023-05-05T01:38:41.199Z,2.88
2023-05-05T01:41:17.168Z,2.83
2023-05-05T01:46:13.756Z,2.45
2023-05-05T01:48:42.584Z,2.40
2023-05-05T01:51:10.382Z,3.13
2023-05-05T01:53:37.324Z,3.20
2023-05-05T01:56:04.842Z,2.90
2023-05-05T01:58:32.759Z,2.97
2023-05-05T02:01:00.825Z,3.17
2023-05-05T02:03:28.798Z,3.25
2023-05-05T02:05:57.131Z,3.10
2023-05-05T02:08:25.965Z,3.10
2023-05-05T02:10:54.010Z,3.28
2023-05-05T02:13:21.244Z,2.80
2023-05-05T02:15:49.487Z,2.63
2023-05-05T02:18:16.508Z,3.40
2023-05-05T02:20:43.713Z,2.50
2023-05-05T02:23:10.215Z,2.63
2023-05-05T02:25:50.375Z,2.78
2023-05-05T02:28:22.928Z,3.40
2023-05-05T02:30:59.946Z,3.08
2023-05-05T02:33:29.228Z,2.95
2023-05-05T02:35:59.529Z,2.55
2023-05-05T02:38:29.266Z,3.05
2023-05-05T02:40:58.032Z,2.92
2023-05-05T02:43:25.658Z,3.10
2023-05-05T02:45:52.135Z,3.28
2023-05-05T02:48:18.510Z,3.72
2023-05-05T02:50:44.895Z,3.28
2023-05-05T02:53:11.334Z,3.20
2023-05-05T02:55:54.318Z,2.95
2023-05-05T02:58:31.463Z,3.10
2023-05-05T03:01:03.832Z,3.20
2023-05-05T03:03:46.914Z,3.30
2023-05-05T03:06:19.515Z,3.10
2023-05-05T03:09:18.508Z,3.25
2023-05-05T03:11:50.905Z,3.13
2023-05-05T03:14:19.155Z,3.28
2023-05-05T03:16:46.959Z,3.30
2023-05-05T03:19:18.352Z,2.92
2023-05-05T03:21:45.322Z,3.22
2023-05-05T03:24:19.359Z,3.10
2023-05-05T03:26:47.723Z,3.25
2023-05-05T03:29:14.649Z,3.13
2023-05-05T03:31:41.320Z,3.28
2023-05-05T03:34:08.455Z,3.08
2023-05-05T03:36:35.820Z,3.28
2023-05-05T03:39:02.300Z,3.13
2023-05-05T03:41:28.776Z,3.25
2023-05-05T03:43:55.146Z,3.25
2023-05-05T03:46:21.659Z,3.00
2023-05-05T03:48:48.605Z,3.00
2023-05-05T03:51:15.662Z,3.08
2023-05-05T03:53:42.122Z,3.30
2023-05-05T03:56:08.639Z,3.40
2023-05-05T03:58:35.066Z,3.10
2023-05-05T04:01:01.751Z,2.90
2023-05-05T04:03:28.204Z,2.85
2023-05-05T04:05:54.868Z,3.33
2023-05-05T04:08:21.209Z,2.97
2023-05-05T04:10:47.554Z,3.13
2023-05-05T04:13:14.068Z,2.88
2023-05-05T04:15:45.638Z,3.03
2023-05-05T04:18:12.267Z,3.15
2023-05-05T04:20:38.692Z,3.10
2023-05-05T04:23:05.049Z,2.75
2023-05-05T04:25:31.626Z,2.70
2023-05-05T04:27:58.036Z,3.10
2023-05-05T04:30:24.426Z,2.95
2023-05-05T04:32:51.153Z,3.50
2023-05-05T04:35:17.730Z,3.17
2023-05-05T04:37:44.153Z,3.40
2023-05-05T04:40:11.002Z,3.55
2023-05-05T04:42:37.624Z,3.40
2023-05-05T04:45:04.584Z,3.22
2023-05-05T04:47:31.261Z,3.03
2023-05-05T04:49:57.651Z,2.97
2023-05-05T04:52:24.004Z,2.88
2023-05-05T04:54:50.417Z,3.00
2023-05-05T04:57:16.750Z,3.40
2023-05-05T04:59:43.161Z,3.42
2023-05-05T05:02:09.590Z,3.40
2023-05-05T05:04:36.131Z,3.60
2023-05-05T05:07:02.570Z,3.20
2023-05-05T05:09:29.034Z,3.17
2023-05-05T05:11:59.864Z,3.63
2023-05-05T05:14:28.018Z,3.90
2023-05-05T05:16:54.597Z,3.78
2023-05-05T05:19:21.406Z,3.90
2023-05-05T05:21:47.954Z,3.90
2023-05-05T05:24:14.304Z,3.92
2023-05-05T05:26:40.716Z,4.35
2023-05-05T05:29:07.132Z,3.97
2023-05-05T05:31:34.352Z,4.57
2023-05-05T05:34:00.950Z,4.15
2023-05-05T05:36:27.384Z,5.32
2023-05-05T05:38:53.829Z,4.82
2023-05-05T05:41:20.167Z,5.30
2023-05-05T05:43:46.496Z,4.60
2023-05-05T05:46:12.916Z,4.63
2023-05-05T05:48:39.428Z,4.55
2023-05-05T05:51:05.853Z,4.90
2023-05-05T05:53:32.701Z,4.95
2023-05-05T05:55:59.155Z,4.70
2023-05-05T05:58:25.664Z,4.72
2023-05-05T06:00:52.121Z,4.80
2023-05-05T06:03:18.663Z,5.28
2023-05-05T06:05:46.302Z,4.75
2023-05-05T06:08:12.843Z,4.43
2023-05-05T06:10:39.818Z,4.72
2023-05-05T06:13:06.454Z,4.60
2023-05-05T06:15:32.943Z,4.82
2023-05-05T06:17:59.377Z,4.47
2023-05-05T06:20:26.149Z,4.60
2023-05-05T06:22:52.913Z,4.80
2023-05-05T06:25:19.256Z,5.00
2023-05-05T06:27:46.166Z,4.15
2023-05-05T06:30:13.063Z,4.60
2023-05-05T06:32:39.491Z,4.70
2023-05-05T06:35:07.077Z,4.53
2023-05-05T06:37:33.444Z,4.75
2023-05-05T06:39:59.960Z,4.85
2023-05-05T06:42:26.409Z,4.57
2023-05-05T06:44:52.934Z,5.22
2023-05-05T06:47:19.437Z,4.65
2023-05-05T06:49:45.812Z,5.57
2023-05-05T06:52:12.647Z,5.38
2023-05-05T06:54:39.011Z,5.00
2023-05-05T06:57:05.549Z,5.43
2023-05-05T06:59:32.373Z,4.93
2023-05-05T07:01:59.274Z,5.85
2023-05-05T07:04:26.699Z,5.90
2023-05-05T07:06:55.157Z,6.10
2023-05-05T07:09:21.537Z,5.85
2023-05-05T07:11:47.914Z,6.18
2023-05-05T07:14:14.401Z,6.53
2023-05-05T07:16:40.823Z,6.07
2023-05-05T07:19:07.344Z,6.97
2023-05-05T07:21:34.059Z,6.30
2023-05-05T07:24:01.120Z,7.10
2023-05-05T07:26:27.633Z,7.32
2023-05-05T07:28:56.047Z,7.32
2023-05-05T07:31:22.593Z,6.88
2023-05-05T07:33:49.724Z,7.03
2023-05-05T07:36:17.883Z,6.95
2023-05-05T07:38:44.426Z,7.32
2023-05-05T07:41:13.048Z,8.05
2023-05-05T07:43:44.617Z,8.30
2023-05-05T07:46:11.881Z,8.20
2023-05-05T07:48:41.665Z,8.32
2023-05-05T07:51:08.818Z,8.57
2023-05-05T07:53:35.254Z,9.20
2023-05-05T07:56:01.787Z,8.48
2023-05-05T07:58:28.210Z,8.48
2023-05-05T08:00:54.640Z,8.32
2023-05-05T08:03:24.326Z,8.43
2023-05-05T08:05:54.098Z,9.05
2023-05-05T08:08:24.306Z,8.10
2023-05-05T08:10:51.867Z,8.98
2023-05-05T08:13:18.514Z,8.85
2023-05-05T08:15:45.336Z,9.35
2023-05-05T08:18:11.772Z,8.45
2023-05-05T08:20:38.158Z,8.95
2023-05-05T08:23:04.840Z,8.48
2023-05-05T08:25:31.168Z,8.85
2023-05-05T08:27:57.613Z,8.00
2023-05-05T08:30:24.131Z,9.68
2023-05-05T08:32:50.678Z,8.60
2023-05-05T08:35:17.978Z,9.02
2023-05-05T08:37:44.393Z,9.07
2023-05-05T08:40:14.468Z,9.32
2023-05-05T08:42:41.919Z,10.20
2023-05-05T08:45:10.222Z,8.98
2023-05-05T08:47:38.734Z,9.35
2023-05-05T08:50:05.883Z,9.57
2023-05-05T08:52:40.385Z,8.75
2023-05-05T08:55:19.942Z,10.07
2023-05-05T08:57:51.822Z,9.45
2023-05-05T09:00:19.784Z,9.00
2023-05-05T09:02:46.943Z,9.02
2023-05-05T09:05:13.534Z,8.90
2023-05-05T09:07:43.860Z,8.63
2023-05-05T09:10:12.024Z,8.38
2023-05-05T09:12:41.971Z,8.45
2023-05-05T09:15:10.478Z,7.97
2023-05-05T09:17:37.790Z,8.05
2023-05-05T09:20:09.154Z,8.68
2023-05-05T09:22:37.871Z,7.25
2023-05-05T09:25:05.933Z,7.90
2023-05-05T09:27:40.956Z,7.70
2023-05-05T09:30:08.646Z,7.60
2023-05-05T09:32:49.179Z,7.55
2023-05-05T09:35:16.691Z,7.32
2023-05-05T09:37:43.572Z,7.43
2023-05-05T09:40:11.392Z,6.93
2023-05-05T09:42:38.850Z,7.10
2023-05-05T09:45:26.566Z,6.72
2023-05-05T09:47:58.773Z,6.47
2023-05-05T09:50:29.993Z,6.30
2023-05-05T09:52:58.042Z,6.07
2023-05-05T09:55:25.051Z,6.10
2023-05-05T09:57:51.630Z,5.18
2023-05-05T10:00:18.357Z,5.75
2023-05-05T10:02:45.839Z,5.70
2023-05-05T10:05:15.533Z,4.55
2023-05-05T10:07:43.741Z,4.97
2023-05-05T10:10:17.432Z,4.45
2023-05-05T10:12:46.467Z,4.05
2023-05-05T10:15:15.630Z,3.95
2023-05-05T10:20:19.059Z,4.00
2023-05-05T10:22:54.379Z,3.33
2023-05-05T10:25:28.920Z,4.30
2023-05-05T10:27:57.745Z,3.72
2023-05-05T10:30:28.228Z,3.65
2023-05-05T10:33:18.250Z,3.90
2023-05-05T10:35:57.184Z,3.80
2023-05-05T10:38:26.832Z,3.80
2023-05-05T10:40:54.937Z,3.95
2023-05-05T10:43:21.671Z,3.80
2023-05-05T10:45:48.544Z,3.75
2023-05-05T10:48:44.574Z,4.55
2023-05-05T10:51:41.147Z,4.05
2023-05-05T10:54:32.659Z,3.53
2023-05-05T10:57:02.580Z,3.72
2023-05-05T10:59:37.957Z,3.75
2023-05-05T11:02:31.422Z,3.50
2023-05-05T11:05:18.117Z,3.92
2023-05-05T11:07:46.339Z,3.40
2023-05-05T11:10:19.963Z,4.00
2023-05-05T11:12:52.298Z,4.00
2023-05-05T11:15:27.973Z,4.00
2023-05-05T11:17:56.376Z,4.00
2023-05-05T11:20:41.948Z,3.58
2023-05-05T11:23:08.273Z,3.67
2023-05-05T11:25:34.575Z,4.03
2023-05-05T11:28:09.313Z,3.67
2023-05-05T11:30:55.821Z,3.63
2023-05-05T11:33:36.949Z,4.00
2023-05-05T11:36:13.135Z,3.78
2023-05-05T11:38:55.599Z,3.88
2023-05-05T11:41:36.917Z,3.88
2023-05-05T11:44:20.245Z,3.88
2023-05-05T11:46:52.606Z,3.22
2023-05-05T11:49:31.843Z,3.58
2023-05-05T11:52:03.812Z,3.50
2023-05-05T11:54:30.921Z,3.22
2023-05-05T11:57:01.913Z,3.90
2023-05-05T11:59:28.243Z,3.65
2023-05-05T12:01:55.122Z,3.33
2023-05-05T12:04:21.609Z,3.70
2023-05-05T12:06:49.006Z,3.70
2023-05-05T12:09:20.149Z,3.30
2023-05-05T12:11:50.826Z,3.58
2023-05-05T12:14:17.187Z,3.30
2023-05-05T12:16:56.246Z,3.75
2023-05-05T12:19:30.017Z,3.35
2023-05-05T12:21:56.959Z,3.10
2023-05-05T12:24:23.490Z,3.33
2023-05-05T12:26:49.910Z,3.22
2023-05-05T12:29:26.098Z,2.65
2023-05-05T12:31:52.915Z,2.97
2023-05-05T12:34:19.613Z,2.65
2023-05-05T12:36:46.278Z,2.65
2023-05-05T12:39:13.293Z,2.60
2023-05-05T12:41:40.080Z,2.40
2023-05-05T12:44:06.860Z,2.88
2023-05-05T12:46:48.951Z,2.60
2023-05-05T12:49:16.640Z,2.15
2023-05-05T12:51:56.577Z,2.53
2023-05-05T12:54:24.913Z,2.92
2023-05-05T12:56:51.442Z,2.80
2023-05-05T12:59:21.009Z,3.10
2023-05-05T13:01:56.122Z,2.70
2023-05-05T13:04:24.632Z,3.15
2023-05-05T13:07:11.085Z,3.20
2023-05-05T13:09:37.592Z,3.03
2023-05-05T13:12:04.804Z,3.30
2023-05-05T13:14:34.739Z,3.15
2023-05-05T13:17:01.295Z,3.10
2023-05-05T13:19:27.734Z,3.17
2023-05-05T13:21:54.823Z,3.08
2023-05-05T13:24:28.745Z,3.13
2023-05-05T13:27:05.501Z,3.08
2023-05-05T13:29:32.993Z,2.60
2023-05-05T13:31:59.827Z,1.90
2023-05-05T13:34:26.887Z,1.85
2023-05-05T13:36:53.559Z,1.38
2023-05-05T13:39:20.166Z,1.70
2023-05-05T13:41:46.778Z,1.83
2023-05-05T13:44:14.048Z,1.67
2023-05-05T13:46:42.443Z,2.00
2023-05-05T13:49:08.901Z,1.50
2023-05-05T13:51:35.415Z,1.88
2023-05-05T13:54:01.899Z,1.63
2023-05-05T13:56:28.525Z,1.48
2023-05-05T13:58:54.914Z,1.65
2023-05-05T14:01:21.341Z,1.85
2023-05-05T14:03:47.821Z,1.80
2023-05-05T14:06:14.213Z,1.83
2023-05-05T14:08:40.571Z,2.00
2023-05-05T14:11:06.956Z,2.10
2023-05-05T14:13:33.372Z,2.28
2023-05-05T14:15:59.940Z,2.00
2023-05-05T14:18:26.518Z,2.30
2023-05-05T14:20:53.058Z,2.05
2023-05-05T14:23:21.291Z,1.77
2023-05-05T14:25:47.666Z,1.50
2023-05-05T14:28:14.152Z,0.90
2023-05-05T14:30:40.500Z,0.80
2023-05-05T14:33:06.960Z,0.80
2023-05-05T14:35:33.467Z,0.50
2023-05-05T14:37:59.811Z,0.68
2023-05-05T14:40:26.328Z,0.77
2023-05-05T14:42:52.769Z,0.77
2023-05-05T14:45:19.176Z,0.60
2023-05-05T14:47:45.621Z,0.80
2023-05-05T14:50:12.162Z,0.85
2023-05-05T14:52:40.179Z,0.70
2023-05-05T14:55:07.319Z,0.57
2023-05-05T14:57:34.513Z,0.75
2023-05-05T15:00:00.908Z,0.60
2023-05-05T15:02:27.333Z,0.90
2023-05-05T15:04:53.741Z,0.77
2023-05-05T15:07:21.240Z,0.68
2023-05-05T15:09:47.666Z,0.77
2023-05-05T15:12:14.069Z,1.00
2023-05-05T15:14:40.823Z,0.70
2023-05-05T15:17:07.179Z,0.70
2023-05-05T15:19:33.616Z,0.60
2023-05-05T15:21:59.989Z,0.60
2023-05-05T15:24:26.353Z,0.70
2023-05-05T15:26:52.710Z,0.70
2023-05-05T15:29:19.162Z,0.75
2023-05-05T15:31:45.571Z,0.70
2023-05-05T15:34:12.124Z,0.70
2023-05-05T15:36:38.503Z,0.93
2023-05-05T15:39:05.025Z,0.80
2023-05-05T15:41:34.206Z,0.70
2023-05-05T15:44:02.001Z,0.73
2023-05-05T15:46:32.044Z,0.70
2023-05-05T15:48:58.509Z,0.70
2023-05-05T15:51:24.925Z,1.02
2023-05-05T15:53:53.287Z,1.05
2023-05-05T15:56:19.728Z,0.90
2023-05-05T15:58:48.852Z,0.80
2023-05-05T16:01:15.532Z,0.88
2023-05-05T16:03:42.364Z,0.88
2023-05-05T16:06:11.488Z,1.00
2023-05-05T16:08:38.776Z,0.90
2023-05-05T16:11:05.602Z,0.80
2023-05-05T16:13:31.985Z,0.80
2023-05-05T16:15:58.348Z,0.88
2023-05-05T16:18:24.724Z,0.90
2023-05-05T16:20:51.173Z,0.90
2023-05-05T16:23:17.757Z,1.17
2023-05-05T16:25:44.709Z,1.10
2023-05-05T16:28:11.085Z,1.00
2023-05-05T16:30:38.060Z,0.90
2023-05-05T16:33:04.471Z,1.05
2023-05-05T16:35:30.931Z,1.08
2023-05-05T16:37:57.510Z,1.08
2023-05-05T16:40:23.905Z,1.20
2023-05-05T16:42:50.349Z,1.20
2023-05-05T16:45:16.689Z,1.00
2023-05-05T16:47:43.153Z,1.00
2023-05-05T16:50:09.954Z,1.05
2023-05-05T16:52:36.294Z,1.27
2023-05-05T16:55:04.726Z,0.80
2023-05-05T16:57:31.841Z,1.10
2023-05-05T16:59:58.222Z,0.80
2023-05-05T17:02:24.684Z,0.90
2023-05-05T17:04:51.116Z,0.77
2023-05-05T17:07:17.492Z,0.70
2023-05-05T17:09:43.896Z,0.80
2023-05-05T17:12:10.276Z,0.90
2023-05-05T17:14:36.682Z,0.70
2023-05-05T17:17:03.080Z,0.90
2023-05-05T17:19:29.416Z,1.15
2023-05-05T17:21:55.883Z,0.90
2023-05-05T17:24:22.662Z,0.77
2023-05-05T17:26:49.076Z,0.90
2023-05-05T17:29:19.675Z,1.17
2023-05-05T17:31:46.583Z,1.00
2023-05-05T17:34:13.031Z,94.57
2023-05-05T17:36:39.432Z,116.28
2023-05-05T17:39:06.107Z,76.30
2023-05-05T17:41:32.532Z,45.63
2023-05-05T17:43:59.402Z,15.45
2023-05-05T17:46:26.047Z,7.47
2023-05-05T17:48:52.601Z,3.83
2023-05-05T17:51:19.122Z,2.05
2023-05-05T17:53:45.521Z,1.10
2023-05-05T17:56:11.970Z,1.10
2023-05-05T17:58:38.395Z,0.77
2023-05-05T18:01:04.882Z,0.70
2023-05-05T18:03:31.538Z,0.80
2023-05-05T18:05:58.103Z,1.05
2023-05-05T18:08:24.470Z,0.90
2023-05-05T18:10:50.889Z,0.80
2023-05-05T18:13:17.288Z,0.80
2023-05-05T18:15:43.748Z,1.00
2023-05-05T18:18:10.295Z,0.90
2023-05-05T18:20:36.698Z,0.77
2023-05-05T18:23:03.042Z,0.80
2023-05-05T18:25:29.502Z,1.08
2023-05-05T18:27:58.433Z,0.80
2023-05-05T18:30:24.904Z,1.00
2023-05-05T18:32:51.499Z,0.80
2023-05-05T18:35:17.972Z,0.90
2023-05-05T18:37:44.504Z,0.80
2023-05-05T18:40:11.230Z,0.90
2023-05-05T18:42:37.663Z,0.80
2023-05-05T18:45:04.625Z,0.90
2023-05-05T18:47:31.121Z,1.10
2023-05-05T18:49:57.510Z,1.25
2023-05-05T18:52:24.508Z,1.10
2023-05-05T18:54:50.899Z,0.95
2023-05-05T18:57:17.352Z,1.30
2023-05-05T18:59:43.705Z,1.45
2023-05-05T19:02:10.130Z,1.70
2023-05-05T19:04:37.939Z,1.83
2023-05-05T19:07:04.733Z,1.83
2023-05-05T19:09:31.373Z,1.98
2023-05-05T19:11:57.809Z,1.40
2023-05-05T19:14:24.323Z,1.33
2023-05-05T19:16:51.282Z,1.45
2023-05-05T19:19:18.217Z,1.42
2023-05-05T19:21:44.569Z,1.55
2023-05-05T19:24:11.541Z,1.40
2023-05-05T19:26:37.956Z,1.55
2023-05-05T19:29:04.401Z,1.60
2023-05-05T19:31:31.325Z,1.80
2023-05-05T19:34:00.450Z,1.90
2023-05-05T19:36:27.753Z,1.75
2023-05-05T19:38:55.443Z,1.90
2023-05-05T19:41:21.874Z,1.77
2023-05-05T19:43:49.844Z,2.10
2023-05-05T19:46:17.155Z,2.60
2023-05-05T19:48:44.133Z,2.45
2023-05-05T19:51:10.559Z,3.30
2023-05-05T19:53:37.008Z,2.70
2023-05-05T19:56:04.877Z,2.95
2023-05-05T19:58:51.769Z,3.00
2023-05-05T20:01:18.255Z,2.95
2023-05-05T20:03:44.685Z,2.70
2023-05-05T20:06:11.281Z,3.00
2023-05-05T20:08:39.072Z,3.10
2023-05-05T20:11:05.503Z,3.47
2023-05-05T20:13:34.271Z,3.10
2023-05-05T20:16:00.930Z,3.00
2023-05-05T20:18:27.373Z,3.35
2023-05-05T20:20:53.810Z,2.92
2023-05-05T20:23:20.290Z,3.15
2023-05-05T20:25:46.733Z,3.05
2023-05-05T20:28:13.075Z,3.55
2023-05-05T20:30:39.508Z,3.22
2023-05-05T20:33:05.919Z,3.80
2023-05-05T20:35:32.400Z,3.83
2023-05-05T20:37:58.825Z,4.00
2023-05-05T20:40:25.464Z,3.85
2023-05-05T20:42:51.801Z,4.35
2023-05-05T20:45:18.554Z,4.00
2023-05-05T20:47:45.006Z,4.15
2023-05-05T20:50:11.949Z,3.72
2023-05-05T20:52:38.577Z,3.33
2023-05-05T20:55:05.348Z,3.47
2023-05-05T20:57:31.854Z,3.05
2023-05-05T20:59:58.292Z,3.60
2023-05-05T21:02:24.786Z,3.78
2023-05-05T21:04:51.465Z,4.05
2023-05-05T21:07:17.790Z,3.65
2023-05-05T21:09:47.078Z,3.30
2023-05-05T21:12:13.416Z,3.25
2023-05-05T21:14:44.689Z,3.28
2023-05-05T21:17:11.028Z,3.00
2023-05-05T21:19:37.375Z,3.10
2023-05-05T21:22:04.365Z,3.22
2023-05-05T21:24:30.721Z,4.28
2023-05-05T21:26:57.179Z,3.80
2023-05-05T21:29:27.012Z,4.47
2023-05-05T21:31:53.492Z,4.05
2023-05-05T21:34:20.157Z,4.10
2023-05-05T21:36:46.541Z,3.78
2023-05-05T21:39:12.920Z,4.18
2023-05-05T21:41:39.302Z,4.50
2023-05-05T21:44:05.714Z,5.22
2023-05-05T21:46:32.161Z,5.43
2023-05-05T21:48:58.552Z,6.03
2023-05-05T21:51:25.279Z,5.78
2023-05-05T21:53:51.657Z,5.32
2023-05-05T21:56:18.018Z,5.25
2023-05-05T21:58:44.623Z,4.63
2023-05-05T22:01:12.050Z,4.90
2023-05-05T22:03:38.662Z,4.75
2023-05-05T22:06:05.319Z,5.32
2023-05-05T22:08:31.783Z,6.18
2023-05-05T22:10:58.120Z,5.90
2023-05-05T22:13:24.509Z,5.85
2023-05-05T22:15:51.090Z,6.13
2023-05-05T22:18:17.542Z,5.28
2023-05-05T22:20:43.968Z,4.80
2023-05-05T22:23:10.692Z,5.38
2023-05-05T22:25:37.101Z,4.90
2023-05-05T22:28:04.098Z,4.93
2023-05-05T22:30:30.833Z,4.35
2023-05-05T22:32:57.313Z,3.67
2023-05-05T22:35:23.741Z,3.80
2023-05-05T22:37:50.125Z,3.85
2023-05-05T22:40:16.517Z,3.67
2023-05-05T22:42:43.005Z,3.65
2023-05-05T22:45:10.303Z,3.63
2023-05-05T22:47:37.113Z,3.33
2023-05-05T22:50:03.609Z,3.75
2023-05-05T22:52:29.951Z,3.53
2023-05-05T22:54:56.483Z,3.92
2023-05-05T22:57:23.221Z,4.07
2023-05-05T22:59:50.119Z,3.92
2023-05-05T23:02:16.494Z,4.05
2023-05-05T23:04:44.564Z,4.63
2023-05-05T23:07:14.392Z,4.05
2023-05-05T23:09:40.921Z,4.70
2023-05-05T23:12:07.380Z,4.63
2023-05-05T23:14:33.888Z,3.85
2023-05-05T23:17:00.776Z,4.10
2023-05-05T23:19:28.988Z,3.35
2023-05-05T23:21:55.732Z,3.80
2023-05-05T23:24:22.136Z,3.65
2023-05-05T23:26:48.506Z,3.40
2023-05-05T23:29:14.973Z,3.80
2023-05-05T23:31:41.406Z,3.30
2023-05-05T23:34:07.747Z,3.40
2023-05-05T23:36:34.153Z,2.67
2023-05-05T23:39:00.553Z,3.05
2023-05-05T23:41:27.022Z,2.75
2023-05-05T23:43:53.417Z,3.25
2023-05-05T23:46:19.795Z,4.20
2023-05-05T23:48:46.224Z,3.55
2023-05-05T23:51:12.550Z,3.70
2023-05-05T23:53:38.888Z,3.10
2023-05-05T23:56:05.665Z,2.88
2023-05-05T23:58:32.001Z,2.85
